Time;durP1;ratioP1;P1;durP2;ratioP2;P2;SDS_P1;SDS_P2;PMS_P1;PMS_P2;Temp;Humidity;BMP_temperature;BMP_pressure;BME280_temperature;BME280_humidity;BME280_pressure;Samples;Min_cycle;Max_cycle;Signal;HPM_P1;HPM_P2
2023/04/19 00:00:03;;;;;;;;;;;14.30;84.50;;;;;;5000672;28;19958;-91
2023/04/19 00:02:28;;;;;;;;;;;14.30;84.60;;;;;;5001862;28;19975;-91
2023/04/19 00:04:54;;;;;;;;;;;14.30;84.60;;;;;;5018306;28;19909;-91
2023/04/19 00:07:19;;;;;;;;;;;14.30;84.60;;;;;;5001335;28;19917;-91
2023/04/19 00:09:45;;;;;;;;;;;14.30;84.70;;;;;;5001813;28;19920;-91
2023/04/19 00:12:11;;;;;;;;;;;14.30;84.70;;;;;;5017301;28;19913;-91
2023/04/19 00:14:36;;;;;;;;;;;14.30;84.80;;;;;;5001214;28;19913;-91
2023/04/19 00:17:02;;;;;;;;;;;14.30;84.90;;;;;;5001504;28;20268;-91
2023/04/19 00:19:27;;;;;;;;;;;14.20;84.90;;;;;;5000896;28;19974;-91
2023/04/19 00:21:53;;;;;;;;;;;14.30;85.00;;;;;;5001203;28;20260;-91
2023/04/19 00:24:19;;;;;;;;;;;14.30;85.20;;;;;;5000168;28;20017;-91
2023/04/19 00:26:44;;;;;;;;;;;14.30;85.10;;;;;;5018118;28;20235;-91
2023/04/19 00:29:10;;;;;;;;;;;14.20;85.20;;;;;;5000457;28;19964;-91
2023/04/19 00:31:38;;;;;;;;;;;14.30;85.30;;;;;;4999831;28;19909;-92
2023/04/19 00:34:05;;;;;;;;;;;14.30;85.30;;;;;;4999340;28;20008;-91
2023/04/19 00:36:30;;;;;;;;;;;14.30;85.40;;;;;;4999325;28;19940;-91
2023/04/19 00:38:56;;;;;;;;;;;14.30;85.50;;;;;;4998060;28;19948;-91
2023/04/19 00:41:23;;;;;;;;;;;14.20;85.50;;;;;;4998628;28;19913;-91
2023/04/19 00:43:48;;;;;;;;;;;14.30;85.70;;;;;;4998895;28;20139;-91
2023/04/19 00:46:14;;;;;;;;;;;14.20;85.70;;;;;;4999134;28;19968;-91
2023/04/19 00:48:40;;;;;;;;;;;14.30;85.80;;;;;;4999354;28;19971;-91
2023/04/19 00:51:05;;;;;;;;;;;14.30;86.00;;;;;;5000515;28;20338;-91
2023/04/19 00:53:31;;;;;;;;;;;14.20;86.00;;;;;;5000472;28;20003;-91
2023/04/19 00:55:58;;;;;;;;;;;14.30;86.00;;;;;;5018442;28;19913;-91
2023/04/19 00:58:24;;;;;;;;;;;14.30;86.10;;;;;;5000688;28;20286;-91
2023/04/19 01:00:49;;;;;;;;;;;14.30;86.10;;;;;;4997930;28;19945;-91
2023/04/19 01:03:16;;;;;;;;;;;14.20;86.20;;;;;;4999253;28;19972;-91
2023/04/19 01:05:41;;;;;;;;;;;14.20;86.20;;;;;;5015825;28;19935;-90
2023/04/19 01:08:07;;;;;;;;;;;14.20;86.20;;;;;;4997385;28;20235;-90
2023/04/19 01:10:33;;;;;;;;;;;14.20;86.30;;;;;;4996726;28;19972;-91
2023/04/19 01:12:58;;;;;;;;;;;14.20;86.30;;;;;;5013460;28;20150;-91
2023/04/19 01:15:24;;;;;;;;;;;14.20;86.40;;;;;;4997587;28;20139;-91
2023/04/19 01:17:50;;;;;;;;;;;14.20;86.40;;;;;;4997995;28;20299;-91
2023/04/19 01:20:16;;;;;;;;;;;14.20;86.40;;;;;;4996967;28;19919;-91
2023/04/19 01:22:41;;;;;;;;;;;14.20;86.40;;;;;;4997343;28;19913;-91
2023/04/19 01:25:07;;;;;;;;;;;14.20;86.40;;;;;;5015768;28;19909;-91
2023/04/19 01:27:33;;;;;;;;;;;14.20;86.40;;;;;;4998597;28;19913;-90
2023/04/19 01:29:59;;;;;;;;;;;14.20;86.40;;;;;;4997928;28;19919;-91
2023/04/19 01:32:27;;;;;;;;;;;14.20;86.40;;;;;;4998721;28;19917;-90
2023/04/19 01:34:53;;;;;;;;;;;14.20;86.40;;;;;;4997993;28;19921;-90
2023/04/19 01:37:18;;;;;;;;;;;14.20;87.00;;;;;;4999107;28;19910;-90
2023/04/19 01:39:44;;;;;;;;;;;14.20;86.40;;;;;;5016326;28;19914;-90
2023/04/19 01:42:09;;;;;;;;;;;14.20;86.50;;;;;;5274907;22;19936;-89
2023/04/19 01:44:51;;;;;;;;;;;14.20;86.50;;;;;;5048316;28;19994;-89
2023/04/19 01:47:17;;;;;;;;;;;14.20;86.50;;;;;;5047302;28;20251;-89
2023/04/19 01:49:42;;;;;;;;;;;14.20;86.50;;;;;;5062860;28;19909;-89
2023/04/19 01:52:08;;;;;;;;;;;14.20;86.50;;;;;;5049496;28;19915;-89
2023/04/19 01:54:33;;;;;;;;;;;14.20;86.70;;;;;;5049394;28;20015;-89
2023/04/19 01:57:00;;;;;;;;;;;14.20;86.70;;;;;;5052050;28;19908;-90
2023/04/19 01:59:25;;;;;;;;;;;14.20;86.60;;;;;;5057327;28;19913;-90
2023/04/19 02:01:51;;;;;;;;;;;14.20;86.60;;;;;;5051882;28;19975;-89
2023/04/19 02:04:19;;;;;;;;;;;14.30;86.60;;;;;;5052948;28;19925;-89
2023/04/19 02:06:44;;;;;;;;;;;14.20;86.50;;;;;;5053421;28;20214;-90
2023/04/19 02:09:10;;;;;;;;;;;14.20;86.60;;;;;;5053695;28;19974;-90
2023/04/19 02:11:35;;;;;;;;;;;14.20;86.70;;;;;;5054408;28;19951;-89
2023/04/19 02:14:01;;;;;;;;;;;14.20;86.80;;;;;;5053608;28;19952;-89
2023/04/19 02:16:27;;;;;;;;;;;14.20;86.70;;;;;;5053844;28;19991;-89
2023/04/19 02:18:52;;;;;;;;;;;14.20;86.80;;;;;;5054269;28;20004;-89
2023/04/19 02:21:18;;;;;;;;;;;14.20;86.80;;;;;;5054238;28;19913;-89
2023/04/19 02:23:44;;;;;;;;;;;14.20;86.90;;;;;;5054748;28;19917;-89
2023/04/19 02:26:10;;;;;;;;;;;14.20;86.90;;;;;;5054834;28;19919;-89
2023/04/19 02:28:36;;;;;;;;;;;14.20;87.00;;;;;;5055150;28;19909;-89
2023/04/19 02:31:05;;;;;;;;;;;14.20;87.00;;;;;;5055371;28;19908;-89
2023/04/19 02:33:31;;;;;;;;;;;14.20;87.10;;;;;;5055440;28;19970;-90
2023/04/19 02:35:57;;;;;;;;;;;14.20;87.10;;;;;;5054696;28;20237;-90
2023/04/19 02:38:22;;;;;;;;;;;14.20;87.10;;;;;;5055749;28;19954;-89
2023/04/19 02:40:48;;;;;;;;;;;14.20;87.10;;;;;;5054739;28;19913;-90
2023/04/19 02:43:13;;;;;;;;;;;14.20;87.30;;;;;;5054407;28;19921;-91
2023/04/19 02:45:39;;;;;;;;;;;14.20;87.40;;;;;;5053945;28;19908;-90
2023/04/19 02:48:05;;;;;;;;;;;14.20;87.50;;;;;;5054247;28;20198;-90
2023/04/19 02:50:31;;;;;;;;;;;14.20;87.50;;;;;;5054814;28;19920;-90
2023/04/19 02:52:57;;;;;;;;;;;14.20;87.50;;;;;;5054859;28;19912;-90
2023/04/19 02:55:22;;;;;;;;;;;14.20;87.50;;;;;;5075017;28;19913;-90
2023/04/19 02:57:48;;;;;;;;;;;14.20;87.40;;;;;;5061882;28;19997;-90
2023/04/19 03:00:14;;;;;;;;;;;14.20;87.50;;;;;;5061529;28;20190;-90
2023/04/19 03:02:40;;;;;;;;;;;14.20;87.40;;;;;;5062013;28;19909;-90
2023/04/19 03:05:06;;;;;;;;;;;14.20;87.40;;;;;;5061093;28;19909;-90
2023/04/19 03:07:31;;;;;;;;;;;14.20;87.30;;;;;;5061843;28;19916;-90
2023/04/19 03:09:58;;;;;;;;;;;14.20;87.30;;;;;;5061524;28;19990;-90
2023/04/19 03:12:23;;;;;;;;;;;14.20;87.30;;;;;;5062136;28;20185;-91
2023/04/19 03:14:49;;;;;;;;;;;14.20;87.30;;;;;;5061109;28;19909;-90
2023/04/19 03:17:15;;;;;;;;;;;14.20;87.30;;;;;;5060329;28;19909;-90
2023/04/19 03:19:41;;;;;;;;;;;14.20;87.30;;;;;;5059630;28;19913;-90
2023/04/19 03:22:07;;;;;;;;;;;14.10;87.10;;;;;;5060592;28;19986;-89
2023/04/19 03:24:33;;;;;;;;;;;14.20;87.20;;;;;;5061196;28;20322;-90
2023/04/19 03:26:58;;;;;;;;;;;14.20;87.10;;;;;;5060373;28;19905;-90
2023/04/19 03:29:24;;;;;;;;;;;14.20;87.20;;;;;;5060106;28;19916;-90
2023/04/19 03:31:49;;;;;;;;;;;14.20;87.20;;;;;;5060077;28;19908;-90
2023/04/19 03:34:15;;;;;;;;;;;14.20;87.10;;;;;;5059938;28;19917;-90
2023/04/19 03:36:41;;;;;;;;;;;14.20;87.10;;;;;;5059584;28;19921;-90
2023/04/19 03:39:06;;;;;;;;;;;14.20;87.10;;;;;;5058351;28;20020;-90
2023/04/19 03:41:32;;;;;;;;;;;14.20;87.10;;;;;;5058322;28;19920;-90
2023/04/19 03:43:58;;;;;;;;;;;14.10;87.00;;;;;;5076526;28;19917;-90
2023/04/19 03:46:24;;;;;;;;;;;14.10;87.10;;;;;;5061345;28;20213;-90
2023/04/19 03:48:51;;;;;;;;;;;14.10;87.00;;;;;;5060900;28;20004;-90
2023/04/19 03:51:16;;;;;;;;;;;14.10;87.00;;;;;;5060036;28;20178;-90
2023/04/19 03:53:42;;;;;;;;;;;14.10;87.00;;;;;;5059834;28;20019;-91
2023/04/19 03:56:08;;;;;;;;;;;14.10;87.00;;;;;;5058484;28;19908;-90
2023/04/19 03:58:34;;;;;;;;;;;14.10;87.60;;;;;;5059074;28;20024;-90
2023/04/19 04:01:00;;;;;;;;;;;14.10;86.90;;;;;;5058753;28;19920;-89
2023/04/19 04:03:25;;;;;;;;;;;14.10;86.90;;;;;;5057750;28;19909;-89
2023/04/19 04:05:51;;;;;;;;;;;14.10;86.90;;;;;;5057144;28;20267;-89
2023/04/19 04:08:17;;;;;;;;;;;14.10;86.90;;;;;;5051904;28;19909;-90
2023/04/19 04:10:42;;;;;;;;;;;14.10;86.90;;;;;;5054591;28;19908;-90
2023/04/19 04:13:08;;;;;;;;;;;14.10;86.90;;;;;;5053699;28;19916;-90
2023/04/19 04:15:34;;;;;;;;;;;14.10;86.90;;;;;;5054006;28;19909;-90
2023/04/19 04:18:00;;;;;;;;;;;14.10;86.90;;;;;;5053346;28;19909;-90
2023/04/19 04:20:26;;;;;;;;;;;14.10;86.90;;;;;;5053877;28;19967;-90
2023/04/19 04:22:51;;;;;;;;;;;14.10;86.80;;;;;;5053720;28;19970;-90
2023/04/19 04:25:17;;;;;;;;;;;14.10;86.80;;;;;;5054482;28;19909;-90
2023/04/19 04:27:43;;;;;;;;;;;14.00;86.70;;;;;;5052212;28;20422;-90
2023/04/19 04:30:09;;;;;;;;;;;14.10;86.70;;;;;;5050293;28;19912;-90
2023/04/19 04:32:35;;;;;;;;;;;14.10;86.60;;;;;;5050785;28;19978;-90
2023/04/19 04:35:02;;;;;;;;;;;14.00;86.50;;;;;;5050663;28;19916;-90
2023/04/19 04:37:30;;;;;;;;;;;14.00;86.40;;;;;;5050895;28;19917;-90
2023/04/19 04:39:55;;;;;;;;;;;14.00;86.40;;;;;;5068348;28;20141;-91
2023/04/19 04:42:21;;;;;;;;;;;14.00;86.30;;;;;;5051286;28;19917;-90
2023/04/19 04:44:46;;;;;;;;;;;14.00;86.10;;;;;;5050588;28;19909;-90
2023/04/19 04:47:12;;;;;;;;;;;14.00;86.00;;;;;;5050433;28;20010;-90
2023/04/19 04:49:38;;;;;;;;;;;14.00;85.90;;;;;;5050275;28;20265;-90
2023/04/19 04:52:03;;;;;;;;;;;14.00;85.80;;;;;;5049688;28;19913;-91
2023/04/19 04:54:29;;;;;;;;;;;14.00;85.70;;;;;;5049487;28;20114;-90
2023/04/19 04:56:55;;;;;;;;;;;14.00;85.70;;;;;;5047460;28;20064;-90
2023/04/19 04:59:20;;;;;;;;;;;13.90;85.60;;;;;;5067013;28;19916;-90
2023/04/19 05:01:46;;;;;;;;;;;14.00;85.70;;;;;;5053561;28;20167;-90
2023/04/19 05:04:11;;;;;;;;;;;14.00;85.70;;;;;;5068257;28;20262;-90
2023/04/19 05:06:39;;;;;;;;;;;14.00;85.70;;;;;;5049873;28;19948;-90
2023/04/19 05:09:05;;;;;;;;;;;14.00;86.20;;;;;;5049435;28;19909;-90
2023/04/19 05:11:31;;;;;;;;;;;14.00;85.50;;;;;;5048408;28;19923;-90
2023/04/19 05:13:56;;;;;;;;;;;13.90;85.30;;;;;;5046444;28;20011;-90
2023/04/19 05:16:22;;;;;;;;;;;13.90;85.20;;;;;;5048213;28;20195;-89
2023/04/19 05:18:48;;;;;;;;;;;13.90;85.10;;;;;;5048175;28;19908;-90
2023/04/19 05:21:13;;;;;;;;;;;13.90;85.00;;;;;;5047096;28;19916;-90
2023/04/19 05:23:39;;;;;;;;;;;13.90;84.90;;;;;;5043639;28;19999;-90
2023/04/19 05:26:04;;;;;;;;;;;13.90;84.80;;;;;;5044684;28;20009;-90
2023/04/19 05:28:30;;;;;;;;;;;14.00;84.80;;;;;;5044134;28;19909;-90
2023/04/19 05:30:56;;;;;;;;;;;14.00;84.70;;;;;;5042407;28;20393;-90
2023/04/19 05:33:21;;;;;;;;;;;14.00;84.60;;;;;;5044379;28;19987;-90
2023/04/19 05:35:47;;;;;;;;;;;14.00;84.30;;;;;;5043303;28;20249;-90
2023/04/19 05:38:12;;;;;;;;;;;14.10;84.10;;;;;;5046876;28;20281;-90
2023/04/19 05:40:39;;;;;;;;;;;14.10;83.90;;;;;;5048039;28;19920;-89
2023/04/19 05:43:04;;;;;;;;;;;14.10;83.60;;;;;;5062824;28;20060;-90
2023/04/19 05:45:30;;;;;;;;;;;14.10;83.20;;;;;;5044033;28;20263;-90
2023/04/19 05:47:56;;;;;;;;;;;14.20;83.00;;;;;;5047038;28;19962;-89
2023/04/19 05:50:22;;;;;;;;;;;14.10;82.60;;;;;;5048200;28;19913;-90
2023/04/19 05:52:47;;;;;;;;;;;14.20;82.40;;;;;;5047470;28;19909;-92
2023/04/19 05:55:13;;;;;;;;;;;14.30;82.00;;;;;;5045569;28;20045;-90
2023/04/19 05:57:40;;;;;;;;;;;14.30;81.60;;;;;;5043701;28;20119;-91
2023/04/19 06:00:08;;;;;;;;;;;14.30;81.00;;;;;;5043771;28;19917;-91
2023/04/19 06:02:33;;;;;;;;;;;14.40;80.30;;;;;;5042643;28;20155;-90
2023/04/19 06:05:02;;;;;;;;;;;14.40;79.70;;;;;;5044075;28;19909;-90
2023/04/19 06:07:29;;;;;;;;;;;14.50;79.20;;;;;;5042483;28;19988;-90
2023/04/19 06:09:55;;;;;;;;;;;14.50;78.60;;;;;;5042313;28;19923;-91
2023/04/19 06:12:21;;;;;;;;;;;14.60;77.90;;;;;;5045452;28;19917;-91
2023/04/19 06:14:46;;;;;;;;;;;14.70;76.90;;;;;;5044060;28;19908;-91
2023/04/19 06:17:13;;;;;;;;;;;14.90;75.90;;;;;;5043995;28;20161;-91
2023/04/19 06:19:38;;;;;;;;;;;15.10;74.80;;;;;;5041613;28;20301;-91
2023/04/19 06:22:04;;;;;;;;;;;15.30;74.10;;;;;;5043525;28;19912;-90
2023/04/19 06:24:29;;;;;;;;;;;15.60;72.00;;;;;;5040227;28;19912;-91
2023/04/19 06:26:55;;;;;;;;;;;16.10;69.90;;;;;;5040849;28;19975;-90
2023/04/19 06:29:23;;;;;;;;;;;16.60;67.60;;;;;;5041676;28;19975;-91
2023/04/19 06:31:48;;;;;;;;;;;17.00;65.20;;;;;;5043365;28;20308;-89
2023/04/19 06:34:14;;;;;;;;;;;17.40;62.80;;;;;;5042379;28;20149;-90
2023/04/19 06:36:40;;;;;;;;;;;17.70;60.50;;;;;;5045234;28;19916;-91
2023/04/19 06:39:06;;;;;;;;;;;18.10;58.90;;;;;;5045111;28;19916;-90
2023/04/19 06:41:31;;;;;;;;;;;18.40;57.70;;;;;;5045912;28;19913;-90
2023/04/19 06:43:57;;;;;;;;;;;18.70;56.90;;;;;;5043363;28;19982;-90
2023/04/19 06:46:23;;;;;;;;;;;19.00;55.90;;;;;;5042831;28;19939;-90
2023/04/19 06:48:48;;;;;;;;;;;19.20;55.20;;;;;;5042616;28;19909;-90
2023/04/19 06:51:15;;;;;;;;;;;19.50;54.70;;;;;;5045412;28;20186;-90
2023/04/19 07:43:07;;;;;;;;;;;23.50;46.40;;;;;;5057127;22;19925;-15
2023/04/19 07:45:32;;;;;;;;;;;23.60;45.90;;;;;;5048361;28;19916;-17
2023/04/19 07:47:58;;;;;;;;;;;23.70;45.40;;;;;;5048248;28;19995;-17
2023/04/19 07:50:24;;;;;;;;;;;23.90;45.10;;;;;;5029652;28;19939;-16
2023/04/19 07:52:49;;;;;;;;;;;24.10;44.60;;;;;;5030084;28;20271;-15
2023/04/19 07:55:16;;;;;;;;;;;24.20;44.20;;;;;;5046789;28;20118;-16
2023/04/19 07:57:45;;;;;;;;;;;24.20;44.20;;;;;;5047014;28;20209;-17
2023/04/19 08:00:11;;;;;;;;;;;24.40;43.90;;;;;;5048912;28;20070;-18
2023/04/19 08:02:37;;;;;;;;;;;24.60;43.60;;;;;;5048216;28;19916;-16
2023/04/19 08:05:03;;;;;;;;;;;24.80;43.60;;;;;;5032663;28;20262;-18
2023/04/19 08:07:29;;;;;;;;;;;24.90;43.60;;;;;;5030951;28;19924;-16
2023/04/19 08:09:55;;;;;;;;;;;25.10;43.50;;;;;;5038836;28;20370;-16
2023/04/19 08:12:20;;;;;;;;;;;25.30;42.80;;;;;;5051687;28;20474;-15
2023/04/19 08:14:47;;;;;;;;;;;25.50;42.40;;;;;;5031384;28;19921;-17
2023/04/19 08:17:15;;;;;;;;;;;25.60;42.20;;;;;;5031588;28;20345;-17
2023/04/19 08:19:40;;;;;;;;;;;25.70;42.20;;;;;;5050402;28;20408;-15
2023/04/19 08:22:06;;;;;;;;;;;25.70;41.50;;;;;;5050330;28;20246;-16
2023/04/19 08:24:31;;;;;;;;;;;25.80;41.40;;;;;;5050335;28;19952;-18
2023/04/19 08:26:57;;;;;;;;;;;25.90;41.30;;;;;;5050768;28;20003;-18
2023/04/19 08:29:23;;;;;;;;;;;26.10;41.10;;;;;;5049405;28;19994;-16
2023/04/19 08:31:48;;;;;;;;;;;26.20;40.80;;;;;;5031911;28;19917;-18
2023/04/19 08:34:14;;;;;;;;;;;26.30;40.70;;;;;;5050666;28;20231;-18
2023/04/19 08:36:40;;;;;;;;;;;26.30;40.70;;;;;;5031435;28;19960;-15
2023/04/19 08:39:05;;;;;;;;;;;26.30;40.40;;;;;;5047814;28;20070;-17
2023/04/19 08:41:31;;;;;;;;;;;26.40;40.30;;;;;;5030347;28;19917;-16
2023/04/19 08:43:57;;;;;;;;;;;26.40;40.20;;;;;;5029630;28;20126;-15
2023/04/19 08:46:23;;;;;;;;;;;26.50;40.10;;;;;;5049578;28;19909;-17
2023/04/19 08:48:49;;;;;;;;;;;26.60;40.00;;;;;;5031322;28;19935;-16
2023/04/19 08:51:16;;;;;;;;;;;26.70;39.80;;;;;;5032885;28;19909;-15
2023/04/19 08:53:42;;;;;;;;;;;26.80;39.50;;;;;;5048150;28;20285;-18
2023/04/19 08:56:09;;;;;;;;;;;26.90;39.40;;;;;;5048214;28;20061;-18
2023/04/19 08:58:34;;;;;;;;;;;26.70;39.40;;;;;;5032505;28;19959;-17
2023/04/19 09:01:02;;;;;;;;;;;26.60;39.50;;;;;;5050383;28;20347;-17
2023/04/19 09:03:28;;;;;;;;;;;26.60;39.40;;;;;;5047553;28;19909;-15
2023/04/19 09:05:54;;;;;;;;;;;26.60;39.30;;;;;;5047996;28;20222;-17
2023/04/19 09:08:23;;;;;;;;;;;26.50;39.30;;;;;;5048944;28;19909;-17
2023/04/19 09:10:55;;;;;;;;;;;26.40;39.40;;;;;;5049003;28;19909;-17
2023/04/19 09:13:21;;;;;;;;;;;26.30;39.50;;;;;;5030617;28;19909;-18
2023/04/19 09:15:48;;;;;;;;;;;26.30;39.30;;;;;;5029307;28;19920;-18
2023/04/19 09:18:14;;;;;;;;;;;26.30;39.20;;;;;;5047807;28;19968;-18
2023/04/19 09:20:41;;;;;;;;;;;26.40;39.10;;;;;;5047798;28;20023;-18
2023/04/19 09:23:07;;;;;;;;;;;26.60;39.00;;;;;;5048194;28;20163;-16
2023/04/19 09:25:34;;;;;;;;;;;26.80;38.90;;;;;;5050909;28;19974;-17
2023/04/19 09:28:10;;;;;;;;;;;27.00;38.70;;;;;;5056493;28;19970;-18
2023/04/19 09:30:37;;;;;;;;;;;27.10;38.50;;;;;;5036549;28;20130;-17
2023/04/19 09:33:02;;;;;;;;;;;27.10;38.40;;;;;;5030784;28;19919;-16
2023/04/19 09:35:40;;;;;;;;;;;27.00;38.20;;;;;;5030474;28;19916;-17
2023/04/19 09:38:06;;;;;;;;;;;26.90;38.00;;;;;;5029961;28;20276;-18
2023/04/19 09:40:31;;;;;;;;;;;26.90;38.00;;;;;;5030643;28;20281;-15
2023/04/19 09:42:57;;;;;;;;;;;27.00;38.10;;;;;;5030511;28;20101;-16
2023/04/19 09:45:23;;;;;;;;;;;27.00;37.90;;;;;;5047681;28;19987;-17
2023/04/19 09:48:00;;;;;;;;;;;27.00;37.80;;;;;;5021716;28;19908;-18
2023/04/19 09:50:25;;;;;;;;;;;26.90;37.70;;;;;;5048492;28;19995;-16
2023/04/19 09:52:54;;;;;;;;;;;26.80;37.70;;;;;;5030916;28;20353;-15
2023/04/19 09:55:20;;;;;;;;;;;26.60;37.70;;;;;;5057538;28;20463;-17
2023/04/19 09:57:51;;;;;;;;;;;26.70;37.90;;;;;;5057439;28;19909;-15
2023/04/19 10:00:17;;;;;;;;;;;26.50;37.80;;;;;;5056443;28;20223;-18
2023/04/19 10:02:43;;;;;;;;;;;26.30;37.70;;;;;;5056614;28;20274;-17
2023/04/19 10:05:09;;;;;;;;;;;26.20;37.70;;;;;;5037652;28;19909;-15
2023/04/19 10:07:36;;;;;;;;;;;26.00;37.80;;;;;;5038779;28;19976;-19
2023/04/19 10:10:01;;;;;;;;;;;25.60;37.90;;;;;;5056004;28;19955;-38
2023/04/19 10:12:28;;;;;;;;;;;24.90;38.00;;;;;;5038923;28;19909;-17
2023/04/19 10:14:55;;;;;;;;;;;24.10;38.40;;;;;;5055251;28;20007;-16
2023/04/19 10:17:21;;;;;;;;;;;23.50;39.10;;;;;;5037947;28;20266;-16
2023/04/19 10:19:48;;;;;;;;;;;23.00;39.60;;;;;;5052208;28;19909;-17
2023/04/19 10:22:13;;;;;;;;;;;22.40;40.10;;;;;;5027400;28;19982;-18
2023/04/19 10:24:39;;;;;;;;;;;22.00;40.60;;;;;;5050450;28;20241;-17
2023/04/19 10:27:07;;;;;;;;;;;21.60;40.90;;;;;;5038835;28;19908;-16
2023/04/19 10:29:52;;;;;;;;;;;21.30;41.20;;;;;;5038403;28;19952;-17
2023/04/19 10:32:18;;;;;;;;;;;21.00;41.60;;;;;;5054835;28;19913;-15
2023/04/19 10:34:45;;;;;;;;;;;20.80;41.90;;;;;;5038407;28;19924;-17
2023/04/19 10:37:12;;;;;;;;;;;20.60;42.10;;;;;;5038281;28;19909;-17
2023/04/19 10:39:38;;;;;;;;;;;20.40;42.40;;;;;;5037365;28;20260;-16
2023/04/19 10:42:04;;;;;;;;;;;20.20;42.50;;;;;;5054285;28;19963;-18
2023/04/19 10:44:29;;;;;;;;;;;20.10;42.80;;;;;;5055022;28;19944;-18
2023/04/19 10:46:57;;;;;;;;;;;19.90;42.90;;;;;;5037098;28;19944;-16
2023/04/19 10:49:22;;;;;;;;;;;19.70;43.00;;;;;;5055806;28;19919;-18
2023/04/19 10:51:51;;;;;;;;;;;19.60;43.30;;;;;;5055166;28;19909;-18
2023/04/19 10:54:26;;;;;;;;;;;19.40;43.60;;;;;;5063632;28;19913;-18
2023/04/19 10:56:59;;;;;;;;;;;19.30;43.80;;;;;;5071227;28;19915;-16
2023/04/19 10:59:25;;;;;;;;;;;19.20;43.90;;;;;;5046617;28;20070;-18
2023/04/19 11:01:50;;;;;;;;;;;19.10;44.00;;;;;;5046743;28;20042;-12
2023/04/19 11:04:28;;;;;;;;;;;19.00;44.10;;;;;;5036714;28;20498;-15
2023/04/19 11:06:54;;;;;;;;;;;18.90;44.10;;;;;;5038229;28;20075;-17
2023/04/19 11:09:25;;;;;;;;;;;18.80;44.20;;;;;;5046483;28;20088;-17
2023/04/19 11:11:51;;;;;;;;;;;18.60;44.70;;;;;;5026135;28;19943;-15
2023/04/19 11:14:19;;;;;;;;;;;18.50;44.20;;;;;;5048998;28;19909;-16
2023/04/19 11:16:44;;;;;;;;;;;18.40;44.30;;;;;;5040308;28;19971;-18
2023/04/19 11:19:13;;;;;;;;;;;18.30;44.30;;;;;;5059466;28;19967;-16
2023/04/19 11:21:39;;;;;;;;;;;18.30;44.50;;;;;;5059087;28;19920;-14
2023/04/19 11:24:17;;;;;;;;;;;18.30;44.60;;;;;;5057973;28;20000;-16
2023/04/19 11:26:47;;;;;;;;;;;18.20;44.70;;;;;;5041641;28;19970;-17
2023/04/19 11:29:13;;;;;;;;;;;18.10;44.70;;;;;;5058957;28;19951;-16
2023/04/19 11:31:38;;;;;;;;;;;18.00;44.70;;;;;;5058601;28;19974;-16
2023/04/19 11:34:04;;;;;;;;;;;18.00;44.80;;;;;;5059408;28;19913;-15
2023/04/19 11:36:31;;;;;;;;;;;17.90;44.80;;;;;;5041348;28;20301;-15
2023/04/19 11:38:56;;;;;;;;;;;17.80;44.90;;;;;;5057343;28;20387;-15
2023/04/19 11:41:22;;;;;;;;;;;17.80;44.90;;;;;;5056651;28;19913;-16
2023/04/19 11:43:47;;;;;;;;;;;17.70;44.90;;;;;;5040618;28;19959;-17
2023/04/19 11:46:13;;;;;;;;;;;17.70;45.00;;;;;;5040328;28;19935;-18
2023/04/19 11:48:49;;;;;;;;;;;17.70;44.90;;;;;;5057587;28;19908;-18
2023/04/19 11:51:15;;;;;;;;;;;17.60;45.00;;;;;;5040032;28;19966;-14
2023/04/19 11:53:40;;;;;;;;;;;17.60;45.20;;;;;;5039046;28;20492;-15
2023/04/19 11:56:06;;;;;;;;;;;17.50;45.10;;;;;;5057691;28;19920;-18
2023/04/19 11:58:43;;;;;;;;;;;17.40;45.00;;;;;;5040928;28;19915;-18
2023/04/19 12:01:18;;;;;;;;;;;17.30;45.00;;;;;;5040574;28;19924;-16
2023/04/19 12:03:45;;;;;;;;;;;17.30;45.10;;;;;;5040112;28;19971;-19
2023/04/19 12:06:11;;;;;;;;;;;17.30;45.20;;;;;;5040084;28;20467;-17
2023/04/19 12:08:38;;;;;;;;;;;17.20;45.20;;;;;;5058489;28;19915;-15
2023/04/19 12:11:04;;;;;;;;;;;17.20;45.20;;;;;;5040615;28;20483;-16
2023/04/19 12:13:30;;;;;;;;;;;17.20;45.30;;;;;;5051672;28;20282;-17
2023/04/19 12:15:56;;;;;;;;;;;17.10;45.20;;;;;;5033839;28;20310;-16
2023/04/19 12:18:22;;;;;;;;;;;17.10;45.40;;;;;;5057092;28;19909;-16
2023/04/19 12:20:50;;;;;;;;;;;17.10;45.40;;;;;;5057500;28;19912;-16
2023/04/19 12:23:16;;;;;;;;;;;17.10;45.40;;;;;;5039117;28;19909;-16
2023/04/19 12:25:43;;;;;;;;;;;17.00;45.40;;;;;;5057131;28;19919;-17
2023/04/19 12:28:08;;;;;;;;;;;17.00;45.40;;;;;;5038876;28;19908;-18
2023/04/19 12:30:35;;;;;;;;;;;17.00;45.50;;;;;;5056596;28;19912;-17
2023/04/19 12:33:01;;;;;;;;;;;17.00;45.50;;;;;;5055770;28;20425;-17
2023/04/19 12:35:27;;;;;;;;;;;16.90;45.60;;;;;;5038746;28;19908;-14
2023/04/19 12:37:53;;;;;;;;;;;16.90;45.60;;;;;;5056147;28;20012;-12
2023/04/19 12:40:19;;;;;;;;;;;16.90;45.60;;;;;;5056275;28;19999;-14
2023/04/19 12:42:45;;;;;;;;;;;16.80;45.70;;;;;;5056592;28;20078;-18
2023/04/19 12:45:11;;;;;;;;;;;16.80;45.60;;;;;;5057056;28;19909;-16
2023/04/19 12:47:36;;;;;;;;;;;16.80;45.70;;;;;;5056636;28;20388;-17
2023/04/19 12:50:02;;;;;;;;;;;16.80;45.70;;;;;;5040035;28;20464;-16
2023/04/19 12:52:27;;;;;;;;;;;16.70;45.70;;;;;;5040235;28;19908;-16
2023/04/19 12:54:53;;;;;;;;;;;16.70;45.70;;;;;;5056733;28;19908;-16
2023/04/19 12:57:18;;;;;;;;;;;16.70;45.80;;;;;;5056101;28;19909;-17
2023/04/19 12:59:44;;;;;;;;;;;16.70;45.80;;;;;;5038932;28;19967;-16
2023/04/19 13:02:09;;;;;;;;;;;16.70;45.80;;;;;;5056195;28;19916;-17
2023/04/19 13:04:35;;;;;;;;;;;16.60;45.80;;;;;;5056520;28;20308;-15
2023/04/19 13:07:01;;;;;;;;;;;16.60;45.80;;;;;;5038672;28;19908;-16
2023/04/19 13:09:27;;;;;;;;;;;16.60;45.90;;;;;;5056219;28;20375;-15
2023/04/19 13:11:56;;;;;;;;;;;16.60;46.00;;;;;;5055456;28;19908;-16
2023/04/19 13:14:22;;;;;;;;;;;16.60;46.00;;;;;;5055220;28;19912;-16
2023/04/19 13:16:48;;;;;;;;;;;16.60;46.10;;;;;;5039562;28;19932;-16
2023/04/19 13:19:13;;;;;;;;;;;16.60;46.10;;;;;;5056148;28;20186;-14
2023/04/19 13:21:39;;;;;;;;;;;16.60;46.10;;;;;;5039517;28;20249;-15
2023/04/19 13:24:04;;;;;;;;;;;16.60;46.20;;;;;;5038529;28;19995;-16
2023/04/19 13:26:30;;;;;;;;;;;16.50;46.10;;;;;;5026982;28;19910;-14
2023/04/19 13:28:56;;;;;;;;;;;16.50;46.20;;;;;;5018918;28;19909;-16
2023/04/19 13:31:21;;;;;;;;;;;16.50;46.20;;;;;;5019241;28;19909;-13
2023/04/19 13:33:47;;;;;;;;;;;16.50;46.10;;;;;;5012587;28;20268;-16
2023/04/19 13:36:12;;;;;;;;;;;16.50;46.10;;;;;;5024014;28;20172;-16
2023/04/19 13:38:38;;;;;;;;;;;16.40;46.00;;;;;;5031979;28;19909;-18
2023/04/19 13:41:04;;;;;;;;;;;16.40;45.90;;;;;;5018985;28;19960;-18
2023/04/19 13:43:29;;;;;;;;;;;16.40;45.90;;;;;;5015072;28;19917;-17
2023/04/19 13:45:55;;;;;;;;;;;16.40;45.80;;;;;;5024623;28;20053;-16
2023/04/19 13:48:20;;;;;;;;;;;16.40;45.80;;;;;;5011835;28;19909;-14
2023/04/19 13:50:46;;;;;;;;;;;16.30;45.70;;;;;;5027077;28;19919;-17
2023/04/19 13:53:11;;;;;;;;;;;16.30;45.70;;;;;;5024468;28;19959;-15
2023/04/19 13:55:37;;;;;;;;;;;16.30;45.80;;;;;;5034008;28;19919;-17
2023/04/19 13:58:03;;;;;;;;;;;16.30;45.70;;;;;;5042150;28;19908;-18
2023/04/19 14:00:28;;;;;;;;;;;16.30;46.20;;;;;;5050864;28;20008;-18
2023/04/19 14:02:55;;;;;;;;;;;16.20;45.80;;;;;;5045211;28;20130;-17
2023/04/19 14:05:21;;;;;;;;;;;16.30;45.90;;;;;;5042453;28;20290;-17
2023/04/19 14:07:47;;;;;;;;;;;16.30;45.90;;;;;;5043843;28;20233;-15
2023/04/19 14:10:13;;;;;;;;;;;16.30;46.00;;;;;;5044049;28;20313;-15
2023/04/19 14:12:38;;;;;;;;;;;16.20;45.80;;;;;;5026370;28;19954;-16
2023/04/19 14:15:04;;;;;;;;;;;16.20;45.80;;;;;;5044441;28;20061;-14
2023/04/19 14:17:29;;;;;;;;;;;16.20;45.80;;;;;;5044113;28;19909;-16
2023/04/19 14:19:55;;;;;;;;;;;16.20;45.80;;;;;;5043875;28;20153;-15
2023/04/19 14:22:21;;;;;;;;;;;16.20;45.80;;;;;;5044310;28;20089;-15
2023/04/19 14:24:46;;;;;;;;;;;16.20;45.70;;;;;;5046003;28;19909;-17
2023/04/19 14:27:12;;;;;;;;;;;16.10;45.60;;;;;;5026561;28;19994;-16
2023/04/19 14:29:37;;;;;;;;;;;16.10;45.60;;;;;;5047449;28;20310;-17
2023/04/19 14:32:03;;;;;;;;;;;16.10;45.70;;;;;;5054516;28;19923;-14
2023/04/19 14:34:28;;;;;;;;;;;16.10;45.50;;;;;;5037281;28;19908;-16
2023/04/19 14:36:54;;;;;;;;;;;16.10;45.60;;;;;;5038321;28;20512;-13
2023/04/19 14:39:20;;;;;;;;;;;16.10;45.70;;;;;;5053820;28;20206;-15
2023/04/19 14:41:45;;;;;;;;;;;16.10;45.70;;;;;;5038528;28;19916;-17
2023/04/19 14:44:11;;;;;;;;;;;16.10;45.70;;;;;;5054080;28;20475;-17
2023/04/19 14:46:38;;;;;;;;;;;16.10;45.70;;;;;;5054617;28;19909;-17
2023/04/19 14:49:04;;;;;;;;;;;16.10;45.60;;;;;;5054649;28;20326;-15
2023/04/19 14:51:30;;;;;;;;;;;16.00;45.60;;;;;;5054987;28;19916;-17
2023/04/19 14:53:57;;;;;;;;;;;16.10;45.70;;;;;;5055741;28;19954;-16
2023/04/19 14:56:23;;;;;;;;;;;16.00;45.60;;;;;;5053940;28;19919;-17
2023/04/19 14:58:48;;;;;;;;;;;16.10;45.70;;;;;;5054005;28;20249;-18